createdAt,value
2022-12-18T00:02:14.428Z,14.47
2022-12-18T00:04:41.177Z,13.67
2022-12-18T00:07:10.639Z,13.27
2022-12-18T00:09:39.713Z,11.67
2022-12-18T00:14:43.036Z,13.70
2022-12-18T00:17:10.118Z,13.40
2022-12-18T00:19:36.883Z,12.30
2022-12-18T00:22:03.755Z,12.70
2022-12-18T00:24:30.516Z,13.97
2022-12-18T00:26:57.245Z,12.10
2022-12-18T00:29:23.925Z,13.63
2022-12-18T00:31:50.727Z,12.70
2022-12-18T00:34:17.491Z,12.00
2022-12-18T00:36:44.281Z,13.30
2022-12-18T00:39:12.763Z,12.97
2022-12-18T00:41:57.996Z,13.30
2022-12-18T00:44:24.768Z,12.67
2022-12-18T00:46:51.447Z,12.23
2022-12-18T00:49:19.919Z,11.23
2022-12-18T00:51:47.225Z,13.03
2022-12-18T00:54:14.128Z,12.33
2022-12-18T00:56:48.347Z,13.53
2022-12-18T00:59:16.107Z,13.43
2022-12-18T01:01:43.676Z,12.70
2022-12-18T01:04:10.630Z,12.57
2022-12-18T01:06:37.313Z,12.17
2022-12-18T01:09:04.494Z,12.00
2022-12-18T01:11:31.858Z,10.80
2022-12-18T01:14:00.022Z,12.03
2022-12-18T01:16:26.884Z,11.87
2022-12-18T01:18:55.663Z,11.53
2022-12-18T01:21:23.695Z,12.40
2022-12-18T01:23:56.298Z,11.30
2022-12-18T01:26:23.645Z,12.17
2022-12-18T01:28:50.380Z,12.27
2022-12-18T01:31:26.925Z,10.73
2022-12-18T01:33:53.999Z,11.20
2022-12-18T01:36:24.128Z,11.80
2022-12-18T01:38:51.923Z,11.10
2022-12-18T01:41:24.984Z,10.37
2022-12-18T01:43:59.660Z,11.20
2022-12-18T01:46:27.551Z,11.70
2022-12-18T01:49:04.158Z,11.20
2022-12-18T01:51:31.684Z,10.43
2022-12-18T01:54:00.287Z,11.43
2022-12-18T01:56:27.248Z,10.57
2022-12-18T01:59:03.707Z,9.97
2022-12-18T02:01:32.078Z,11.63
2022-12-18T02:04:26.346Z,11.63
2022-12-18T02:07:13.551Z,11.47
2022-12-18T02:09:52.188Z,10.43
2022-12-18T02:12:31.916Z,10.97
2022-12-18T02:14:58.559Z,10.93
2022-12-18T02:17:38.650Z,9.87
2022-12-18T02:20:19.416Z,9.77
2022-12-18T02:23:01.879Z,10.20
2022-12-18T02:26:05.971Z,10.73
2022-12-18T02:28:37.256Z,10.27
2022-12-18T02:31:08.885Z,11.00
2022-12-18T02:33:37.239Z,10.80
2022-12-18T02:36:05.090Z,10.40
2022-12-18T02:38:33.326Z,11.30
2022-12-18T02:41:01.356Z,11.77
2022-12-18T02:43:28.102Z,10.87
2022-12-18T02:45:58.230Z,9.83
2022-12-18T02:48:29.300Z,9.87
2022-12-18T02:51:16.912Z,10.63
2022-12-18T02:53:52.731Z,10.70
2022-12-18T02:56:34.262Z,9.27
2022-12-18T02:59:16.277Z,9.63
2022-12-18T03:01:56.004Z,10.30
2022-12-18T03:04:58.122Z,10.67
2022-12-18T03:07:37.846Z,12.33
2022-12-18T03:10:07.789Z,10.07
2022-12-18T03:12:39.209Z,10.30
2022-12-18T03:15:17.800Z,10.20
2022-12-18T03:17:50.918Z,11.67
2022-12-18T03:20:22.402Z,10.60
2022-12-18T03:23:08.315Z,10.60
2022-12-18T03:25:38.979Z,10.00
2022-12-18T03:28:09.513Z,9.47
2022-12-18T03:30:39.731Z,9.43
2022-12-18T03:33:14.408Z,9.43
2022-12-18T03:35:43.811Z,9.17
2022-12-18T03:38:11.511Z,10.20
2022-12-18T03:41:02.667Z,9.50
2022-12-18T03:43:37.214Z,9.10
2022-12-18T03:46:17.751Z,9.43
2022-12-18T03:48:52.346Z,10.43
2022-12-18T03:51:29.296Z,9.70
2022-12-18T03:54:05.456Z,9.40
2022-12-18T03:56:37.921Z,10.23
2022-12-18T03:59:06.092Z,10.80
2022-12-18T04:01:37.017Z,9.80
2022-12-18T04:04:05.556Z,8.40
2022-12-18T04:06:36.394Z,8.13
2022-12-18T04:09:05.003Z,10.20
2022-12-18T04:11:31.819Z,11.27
2022-12-18T04:13:59.444Z,8.53
2022-12-18T04:16:29.314Z,9.70
2022-12-18T04:18:56.128Z,11.20
2022-12-18T04:21:23.669Z,10.13
2022-12-18T04:23:50.707Z,10.80
2022-12-18T04:26:17.406Z,10.17
2022-12-18T04:28:44.184Z,10.23
2022-12-18T04:31:10.957Z,9.67
2022-12-18T04:33:38.264Z,10.50
2022-12-18T04:36:05.812Z,10.17
2022-12-18T04:38:32.632Z,10.53
2022-12-18T04:40:59.570Z,10.50
2022-12-18T04:43:26.372Z,10.77
2022-12-18T04:45:53.087Z,8.83
2022-12-18T04:48:21.198Z,10.20
2022-12-18T04:50:48.116Z,10.63
2022-12-18T04:53:14.786Z,10.17
2022-12-18T04:55:41.460Z,9.30
2022-12-18T04:58:08.111Z,7.90
2022-12-18T05:00:36.413Z,8.77
2022-12-18T05:03:04.070Z,10.53
2022-12-18T05:05:30.802Z,9.90
2022-12-18T05:07:57.621Z,8.97
2022-12-18T05:10:24.320Z,9.30
2022-12-18T05:13:01.350Z,9.80
2022-12-18T05:15:30.356Z,9.20
2022-12-18T05:17:58.113Z,9.10
2022-12-18T05:20:26.129Z,9.73
2022-12-18T05:22:53.644Z,9.00
2022-12-18T05:25:20.759Z,9.60
2022-12-18T05:27:47.957Z,10.63
2022-12-18T05:30:15.614Z,8.60
2022-12-18T05:32:42.854Z,10.07
2022-12-18T05:35:10.988Z,8.70
2022-12-18T05:37:42.746Z,9.40
2022-12-18T05:40:10.734Z,8.83
2022-12-18T05:42:37.537Z,9.13
2022-12-18T05:45:04.964Z,10.03
2022-12-18T05:47:31.743Z,10.10
2022-12-18T05:49:58.470Z,10.90
2022-12-18T05:52:25.598Z,10.27
2022-12-18T05:54:52.342Z,11.30
2022-12-18T05:57:19.137Z,10.10
2022-12-18T05:59:45.895Z,9.80
2022-12-18T06:02:12.686Z,8.00
2022-12-18T06:04:39.492Z,10.23
2022-12-18T06:07:06.237Z,10.00
2022-12-18T06:09:33.294Z,9.87
2022-12-18T06:12:00.205Z,8.57
2022-12-18T06:14:26.912Z,9.47
2022-12-18T06:16:53.816Z,8.93
2022-12-18T06:19:20.528Z,9.17
2022-12-18T06:21:47.406Z,7.50
2022-12-18T06:24:14.100Z,7.67
2022-12-18T06:26:40.865Z,8.20
2022-12-18T06:29:07.588Z,8.17
2022-12-18T06:31:34.514Z,9.80
2022-12-18T06:34:04.016Z,10.30
2022-12-18T06:36:30.785Z,10.07
2022-12-18T06:38:57.940Z,8.33
2022-12-18T06:41:25.056Z,9.50
2022-12-18T06:43:55.552Z,9.20
2022-12-18T06:46:24.934Z,10.13
2022-12-18T06:48:51.727Z,9.90
2022-12-18T06:51:24.093Z,9.30
2022-12-18T06:53:50.904Z,7.20
2022-12-18T06:56:17.925Z,10.20
2022-12-18T06:58:44.801Z,9.83
2022-12-18T07:01:13.190Z,9.67
2022-12-18T07:03:41.919Z,10.77
2022-12-18T07:06:16.376Z,9.33
2022-12-18T07:08:43.126Z,9.70
2022-12-18T07:11:09.848Z,9.83
2022-12-18T07:13:36.661Z,6.87
2022-12-18T07:16:15.050Z,9.80
2022-12-18T07:18:44.720Z,9.97
2022-12-18T07:21:14.274Z,9.57
2022-12-18T07:23:41.517Z,9.47
2022-12-18T07:26:14.261Z,9.57
2022-12-18T07:28:42.740Z,9.67
2022-12-18T07:31:15.804Z,9.60
2022-12-18T07:33:43.403Z,9.93
2022-12-18T07:36:10.955Z,11.97
2022-12-18T07:38:37.860Z,10.40
2022-12-18T07:41:06.732Z,10.57
2022-12-18T07:43:34.840Z,10.10
2022-12-18T07:46:01.903Z,9.50
2022-12-18T07:48:29.746Z,10.40
2022-12-18T07:51:05.142Z,9.90
2022-12-18T07:53:32.160Z,10.83
2022-12-18T07:56:25.903Z,8.57
2022-12-18T07:58:46.880Z,10.83
2022-12-18T08:01:15.056Z,9.67
2022-12-18T08:03:42.485Z,11.50
2022-12-18T08:06:10.891Z,12.17
2022-12-18T08:08:38.099Z,11.83
2022-12-18T08:11:04.978Z,9.83
2022-12-18T08:13:31.725Z,8.90
2022-12-18T08:16:00.561Z,10.40
2022-12-18T08:18:27.656Z,7.10
2022-12-18T08:20:55.002Z,10.97
2022-12-18T08:23:21.856Z,8.37
2022-12-18T08:25:48.836Z,7.67
2022-12-18T08:28:15.508Z,10.40
2022-12-18T08:30:43.565Z,10.40
2022-12-18T08:33:10.330Z,10.60
2022-12-18T08:35:42.511Z,9.97
2022-12-18T08:38:12.238Z,8.60
2022-12-18T08:40:38.995Z,8.40
2022-12-18T08:43:24.655Z,10.90
2022-12-18T08:45:51.774Z,10.23
2022-12-18T08:48:22.136Z,10.97
2022-12-18T08:50:56.821Z,10.63
2022-12-18T08:53:29.266Z,10.77
2022-12-18T08:55:59.518Z,10.17
2022-12-18T08:58:26.216Z,10.47
2022-12-18T09:00:53.056Z,10.03
2022-12-18T09:03:21.030Z,10.00
2022-12-18T09:05:47.992Z,9.63
2022-12-18T09:08:15.175Z,11.23
2022-12-18T09:10:46.568Z,8.77
2022-12-18T09:13:14.075Z,9.20
2022-12-18T09:15:48.824Z,9.50
2022-12-18T09:18:17.598Z,10.40
2022-12-18T09:20:45.214Z,11.07
2022-12-18T09:23:12.874Z,7.70
2022-12-18T09:25:40.495Z,10.63
2022-12-18T09:28:12.322Z,9.73
2022-12-18T09:30:40.936Z,10.60
2022-12-18T09:33:08.080Z,9.23
2022-12-18T09:35:38.032Z,10.43
2022-12-18T09:38:04.892Z,9.73
2022-12-18T09:40:37.368Z,10.20
2022-12-18T09:43:11.639Z,9.37
2022-12-18T09:45:48.816Z,10.00
2022-12-18T09:48:27.514Z,8.70
2022-12-18T09:51:00.710Z,8.30
2022-12-18T09:53:31.983Z,8.87
2022-12-18T09:56:02.765Z,8.17
2022-12-18T09:58:41.141Z,10.60
2022-12-18T10:01:15.060Z,10.47
2022-12-18T10:03:41.918Z,9.40
2022-12-18T10:06:36.328Z,10.07
2022-12-18T10:09:40.612Z,9.90
2022-12-18T10:12:07.411Z,9.00
2022-12-18T10:14:53.386Z,10.50
2022-12-18T10:17:46.788Z,9.17
2022-12-18T10:20:30.787Z,9.93
2022-12-18T10:23:35.820Z,10.43
2022-12-18T10:26:02.488Z,9.57
2022-12-18T10:28:31.699Z,10.07
2022-12-18T10:30:58.982Z,9.00
2022-12-18T10:33:29.919Z,8.10
2022-12-18T10:35:56.979Z,10.70
2022-12-18T10:38:33.555Z,9.07
2022-12-18T10:41:06.707Z,11.37
2022-12-18T10:43:41.972Z,10.57
2022-12-18T10:46:08.744Z,9.87
2022-12-18T10:48:42.899Z,9.43
2022-12-18T10:51:12.140Z,10.40
2022-12-18T10:53:42.481Z,10.07
2022-12-18T10:56:09.920Z,9.40
2022-12-18T10:58:39.468Z,9.43
2022-12-18T11:01:17.078Z,11.13
2022-12-18T11:04:01.643Z,11.50
2022-12-18T11:06:29.422Z,10.30
2022-12-18T11:09:19.751Z,10.77
2022-12-18T11:11:53.305Z,10.13
2022-12-18T11:14:25.284Z,11.33
2022-12-18T11:19:42.396Z,10.53
2022-12-18T11:22:31.580Z,10.10
2022-12-18T11:27:33.999Z,10.20
2022-12-18T11:30:25.094Z,10.00
2022-12-18T11:33:12.898Z,9.53
2022-12-18T11:35:57.989Z,10.27
2022-12-18T11:38:50.459Z,10.20
2022-12-18T11:41:57.719Z,9.43
2022-12-18T11:44:28.930Z,11.03
2022-12-18T11:47:10.405Z,10.97
2022-12-18T11:49:37.676Z,10.30
2022-12-18T11:52:19.857Z,10.47
2022-12-18T11:54:46.779Z,11.53
2022-12-18T11:57:36.642Z,10.47
2022-12-18T12:00:17.818Z,10.80
2022-12-18T12:03:02.640Z,10.50
2022-12-18T12:05:41.263Z,10.97
2022-12-18T12:08:33.667Z,10.77
2022-12-18T12:11:21.871Z,10.77
2022-12-18T12:14:19.890Z,9.13
2022-12-18T12:17:08.018Z,11.40
2022-12-18T12:19:50.759Z,11.60
2022-12-18T12:22:36.309Z,11.17
2022-12-18T12:27:41.072Z,10.87
2022-12-18T12:30:19.827Z,11.40
2022-12-18T12:33:03.619Z,10.87
2022-12-18T12:36:09.371Z,10.57
2022-12-18T12:38:51.636Z,12.17
2022-12-18T12:41:42.006Z,12.20
2022-12-18T12:44:17.164Z,11.40
2022-12-18T12:46:44.766Z,12.10
2022-12-18T12:49:21.321Z,11.47
2022-12-18T12:52:04.976Z,11.20
2022-12-18T12:54:33.821Z,10.63
2022-12-18T12:57:20.564Z,11.50
2022-12-18T12:59:59.373Z,11.40
2022-12-18T13:02:53.150Z,12.43
2022-12-18T13:05:34.830Z,13.17
2022-12-18T13:08:07.319Z,11.70
2022-12-18T13:10:36.480Z,11.10
2022-12-18T13:13:09.098Z,9.80
2022-12-18T13:15:47.978Z,12.40
2022-12-18T13:18:26.300Z,11.70
2022-12-18T13:21:09.081Z,11.37
2022-12-18T13:23:38.308Z,12.40
2022-12-18T13:26:09.184Z,12.30
2022-12-18T13:28:48.256Z,11.37
2022-12-18T13:31:33.891Z,12.40
2022-12-18T13:34:26.735Z,11.33
2022-12-18T13:36:56.381Z,11.40
2022-12-18T13:39:34.819Z,12.47
2022-12-18T13:42:08.654Z,12.80
2022-12-18T13:44:44.357Z,12.57
2022-12-18T13:47:34.702Z,12.30
2022-12-18T13:50:03.815Z,11.53
2022-12-18T13:52:37.283Z,12.60
2022-12-18T13:55:15.503Z,11.20
2022-12-18T13:57:42.492Z,12.70
2022-12-18T14:00:25.462Z,11.13
2022-12-18T14:02:52.635Z,12.10
2022-12-18T14:05:27.482Z,12.10
2022-12-18T14:07:55.700Z,11.13
2022-12-18T14:10:42.218Z,12.40
2022-12-18T14:13:16.245Z,12.40
2022-12-18T14:15:47.539Z,12.53
2022-12-18T14:18:29.907Z,12.90
2022-12-18T14:20:59.864Z,12.47
2022-12-18T14:23:39.201Z,12.27
2022-12-18T14:26:30.808Z,12.07
2022-12-18T14:28:59.005Z,11.57
2022-12-18T14:31:28.162Z,13.13
2022-12-18T14:33:55.408Z,10.13
2022-12-18T14:36:27.764Z,11.17
2022-12-18T14:38:56.579Z,11.67
2022-12-18T14:41:24.883Z,12.67
2022-12-18T14:43:53.478Z,12.00
2022-12-18T14:46:38.444Z,11.30
2022-12-18T14:49:35.237Z,12.27
2022-12-18T14:52:07.093Z,12.50
2022-12-18T14:54:38.069Z,11.83
2022-12-18T14:57:27.391Z,12.10
2022-12-18T14:59:54.124Z,11.90
2022-12-18T15:02:29.378Z,11.97
2022-12-18T15:05:18.420Z,11.80
2022-12-18T15:07:50.704Z,13.30
2022-12-18T15:10:29.429Z,12.30
2022-12-18T15:13:03.760Z,12.30
2022-12-18T15:15:43.434Z,13.60
2022-12-18T15:18:12.918Z,11.97
2022-12-18T15:20:44.248Z,14.43
2022-12-18T15:23:25.964Z,12.07
2022-12-18T15:25:58.804Z,12.00
2022-12-18T15:28:45.224Z,14.10
2022-12-18T15:31:17.048Z,14.17
2022-12-18T15:33:54.072Z,13.00
2022-12-18T15:36:26.754Z,14.00
2022-12-18T15:38:56.085Z,12.27
2022-12-18T15:41:29.081Z,13.93
2022-12-18T15:43:55.843Z,12.33
2022-12-18T15:46:25.105Z,13.80
2022-12-18T15:49:01.709Z,14.30
2022-12-18T15:51:32.477Z,12.80
2022-12-18T15:54:01.957Z,13.80
2022-12-18T15:56:58.084Z,12.83
2022-12-18T15:59:25.457Z,13.30
2022-12-18T16:01:56.298Z,13.13
2022-12-18T16:04:24.598Z,15.47
2022-12-18T16:07:14.687Z,13.60
2022-12-18T16:09:39.740Z,15.47
2022-12-18T16:12:08.040Z,13.67
2022-12-18T16:14:34.879Z,13.30
2022-12-18T16:17:04.859Z,13.83
2022-12-18T16:19:31.678Z,13.50
2022-12-18T16:21:59.554Z,14.00
2022-12-18T16:24:28.974Z,14.17
2022-12-18T16:26:58.769Z,12.93
2022-12-18T16:29:28.492Z,14.60
2022-12-18T16:31:56.520Z,13.97
2022-12-18T16:34:28.859Z,13.37
2022-12-18T16:37:03.122Z,13.20
2022-12-18T16:39:33.009Z,12.30
2022-12-18T16:42:00.002Z,14.30
2022-12-18T16:44:28.766Z,13.33
2022-12-18T16:46:55.478Z,13.17
2022-12-18T16:49:22.491Z,12.87
2022-12-18T16:51:49.209Z,12.27
2022-12-18T16:54:19.043Z,12.43
2022-12-18T16:56:49.843Z,14.47
2022-12-18T16:59:16.683Z,13.00
2022-12-18T17:01:44.804Z,14.37
2022-12-18T17:04:11.902Z,13.37
2022-12-18T17:06:44.530Z,13.50
2022-12-18T17:09:14.940Z,14.53
2022-12-18T17:11:41.650Z,15.37
2022-12-18T17:14:12.421Z,14.50
2022-12-18T17:16:39.168Z,14.10
2022-12-18T17:19:10.931Z,15.30
2022-12-18T17:21:42.504Z,15.73
2022-12-18T17:24:10.350Z,14.40
2022-12-18T17:26:37.654Z,14.57
2022-12-18T17:29:04.697Z,13.50
2022-12-18T17:31:31.876Z,14.07
2022-12-18T17:33:59.009Z,14.93
2022-12-18T17:36:28.955Z,14.03
2022-12-18T17:38:57.927Z,14.80
2022-12-18T17:41:25.668Z,16.07
2022-12-18T17:44:02.596Z,14.70
2022-12-18T17:46:31.294Z,14.00
2022-12-18T17:48:59.490Z,14.03
2022-12-18T17:51:26.692Z,15.43
2022-12-18T17:53:53.611Z,14.60
2022-12-18T17:56:22.729Z,13.67
2022-12-18T17:58:50.421Z,14.37
2022-12-18T18:01:21.093Z,13.37
2022-12-18T18:03:50.355Z,13.67
2022-12-18T18:06:20.362Z,11.60
2022-12-18T18:08:47.106Z,15.53
2022-12-18T18:11:35.507Z,16.03
2022-12-18T18:14:05.184Z,11.50
2022-12-18T18:16:41.472Z,15.60
2022-12-18T18:19:11.180Z,15.33
2022-12-18T18:21:42.751Z,15.17
2022-12-18T18:24:11.046Z,15.00
2022-12-18T18:26:37.874Z,15.83
2022-12-18T18:29:06.471Z,14.10
2022-12-18T18:31:41.340Z,14.20
2022-12-18T18:34:10.327Z,14.87
2022-12-18T18:36:37.037Z,15.23
2022-12-18T18:39:04.388Z,13.93
2022-12-18T18:41:31.152Z,12.70
2022-12-18T18:43:58.930Z,13.87
2022-12-18T18:46:26.211Z,15.97
2022-12-18T18:48:53.391Z,14.53
2022-12-18T18:51:21.724Z,14.70
2022-12-18T18:53:50.605Z,14.00
2022-12-18T18:56:56.344Z,15.73
2022-12-18T18:59:06.827Z,15.67
2022-12-18T19:26:04.106Z,16.27
2022-12-18T19:28:38.829Z,15.97
2022-12-18T19:31:09.049Z,15.70
2022-12-18T19:33:45.187Z,15.80
2022-12-18T19:36:23.307Z,16.00
2022-12-18T19:38:51.036Z,16.30
2022-12-18T19:41:18.555Z,15.77
2022-12-18T19:43:46.585Z,17.70
2022-12-18T19:46:16.072Z,17.10
2022-12-18T19:48:45.099Z,15.50
2022-12-18T19:51:14.065Z,17.37
2022-12-18T19:53:40.936Z,15.20
2022-12-18T19:56:13.968Z,16.70
2022-12-18T19:58:41.263Z,16.80
2022-12-18T20:01:13.470Z,17.60
2022-12-18T20:03:44.255Z,15.87
2022-12-18T20:06:34.230Z,18.20
2022-12-18T20:09:04.226Z,16.13
2022-12-18T20:11:32.140Z,16.80
2022-12-18T20:14:01.563Z,15.90
2022-12-18T20:16:29.050Z,17.43
2022-12-18T20:18:56.550Z,16.97
2022-12-18T20:21:23.721Z,19.27
2022-12-18T20:23:50.393Z,15.40
2022-12-18T20:26:17.236Z,17.10
2022-12-18T20:28:44.015Z,17.53
2022-12-18T20:31:13.713Z,17.77
2022-12-18T20:33:42.034Z,16.83
2022-12-18T20:36:14.331Z,16.30
2022-12-18T20:38:42.641Z,17.60
2022-12-18T20:41:16.843Z,17.03
2022-12-18T20:43:44.509Z,18.77
2022-12-18T20:46:14.045Z,17.13
2022-12-18T20:48:41.244Z,19.13
2022-12-18T20:51:13.539Z,18.40
2022-12-18T20:53:41.987Z,18.07
2022-12-18T20:56:15.575Z,16.40
2022-12-18T20:58:48.583Z,15.93
2022-12-18T21:01:20.944Z,18.83
2022-12-18T21:03:48.781Z,18.63
2022-12-18T21:06:18.035Z,19.90
2022-12-18T21:08:44.910Z,18.30
2022-12-18T21:11:39.053Z,18.50
2022-12-18T21:14:15.002Z,18.93
2022-12-18T21:16:45.514Z,18.10
2022-12-18T21:19:14.337Z,17.13
2022-12-18T21:21:42.630Z,18.77
2022-12-18T21:24:10.039Z,19.83
2022-12-18T21:26:43.444Z,17.57
2022-12-18T21:29:17.592Z,17.90
2022-12-18T21:31:45.526Z,17.13
2022-12-18T21:34:25.472Z,15.40
2022-12-18T21:36:52.421Z,18.73
2022-12-18T21:39:21.078Z,18.87
2022-12-18T21:42:09.281Z,19.20
2022-12-18T21:44:41.648Z,17.50
2022-12-18T21:47:22.367Z,19.37
2022-12-18T21:49:53.371Z,19.03
2022-12-18T21:52:31.427Z,18.07
2022-12-18T21:55:09.735Z,19.30
2022-12-18T21:57:38.186Z,18.27
2022-12-18T22:00:06.387Z,20.47
2022-12-18T22:02:33.162Z,17.30
2022-12-18T22:04:59.995Z,16.33
2022-12-18T22:07:28.995Z,17.80
2022-12-18T22:09:56.105Z,19.40
2022-12-18T22:12:43.429Z,18.70
2022-12-18T22:15:21.527Z,18.00
2022-12-18T22:17:50.458Z,19.70
2022-12-18T22:20:18.418Z,20.13
2022-12-18T22:22:47.320Z,20.57
2022-12-18T22:25:14.123Z,17.90
2022-12-18T22:27:40.814Z,20.67
2022-12-18T22:30:08.277Z,22.13
2022-12-18T22:32:36.080Z,18.90
2022-12-18T22:35:09.524Z,22.03
2022-12-18T22:37:39.565Z,18.37
2022-12-18T22:40:07.394Z,20.80
2022-12-18T22:42:34.459Z,21.70
2022-12-18T22:45:01.167Z,20.43
2022-12-18T22:47:29.961Z,21.20
2022-12-18T22:49:58.166Z,21.10
2022-12-18T22:52:25.391Z,20.03
2022-12-18T22:54:53.549Z,18.33
2022-12-18T22:57:24.033Z,21.23
2022-12-18T22:59:51.401Z,23.20
2022-12-18T23:02:19.154Z,20.77
2022-12-18T23:04:47.487Z,20.80
2022-12-18T23:07:14.290Z,23.00
2022-12-18T23:09:40.992Z,24.63
2022-12-18T23:12:10.797Z,22.60
2022-12-18T23:14:37.785Z,20.57
2022-12-18T23:17:04.472Z,23.30
2022-12-18T23:19:31.175Z,22.20
2022-12-18T23:21:59.070Z,21.27
2022-12-18T23:24:26.287Z,22.33
2022-12-18T23:26:52.980Z,22.87
2022-12-18T23:29:19.924Z,21.33
2022-12-18T23:31:47.329Z,22.07
2022-12-18T23:34:15.031Z,23.20
2022-12-18T23:36:46.251Z,21.50
2022-12-18T23:39:20.466Z,21.50
2022-12-18T23:41:56.335Z,23.30
2022-12-18T23:44:23.081Z,22.37
2022-12-18T23:46:49.934Z,22.03
2022-12-18T23:49:16.647Z,24.23
2022-12-18T23:51:43.527Z,22.60
2022-12-18T23:54:10.533Z,22.60
2022-12-18T23:56:37.392Z,21.10
2022-12-18T23:59:04.458Z,20.63
